Time;durP1;ratioP1;P1;durP2;ratioP2;P2;SDS_P1;SDS_P2;PMS_P1;PMS_P2;Temp;Humidity;BMP_temperature;BMP_pressure;BME280_temperature;BME280_humidity;BME280_pressure;Samples;Min_cycle;Max_cycle;Signal;HPM_P1;HPM_P2
2024/01/05 00:01:15;;;;;;;9.73;7.00;;;2.70;99.90;;;;;;6301933;22;20011;-82
2024/01/05 00:03:40;;;;;;;10.90;7.43;;;2.70;99.90;;;;;;6299960;22;20026;-82
2024/01/05 00:06:07;;;;;;;13.20;7.55;;;2.70;99.90;;;;;;6302222;22;20436;-82
2024/01/05 00:08:32;;;;;;;;;;;2.70;99.90;;;;;;6302609;22;20082;-82
2024/01/05 00:10:58;;;;;;;12.35;7.15;;;2.70;99.90;;;;;;6299115;22;20335;-82
2024/01/05 00:13:24;;;;;;;13.68;7.93;;;2.70;99.90;;;;;;6301134;22;20041;-82
2024/01/05 00:15:49;;;;;;;8.82;5.53;;;2.70;99.90;;;;;;6300400;22;20379;-82
2024/01/05 00:18:15;;;;;;;10.87;6.73;;;2.70;99.90;;;;;;6299696;22;20440;-82
2024/01/05 00:20:40;;;;;;;9.25;6.90;;;2.70;99.90;;;;;;6298908;22;20249;-82
2024/01/05 00:23:06;;;;;;;10.38;6.72;;;2.70;99.90;;;;;;6298961;22;20007;-82
2024/01/05 00:25:32;;;;;;;11.93;7.43;;;2.70;99.90;;;;;;6299747;22;20114;-82
2024/01/05 00:27:57;;;;;;;14.38;7.35;;;2.70;99.90;;;;;;6300572;22;20367;-83
2024/01/05 00:30:23;;;;;;;11.53;7.10;;;2.70;99.90;;;;;;6299763;22;20019;-82
2024/01/05 00:32:48;;;;;;;12.67;6.70;;;2.70;99.90;;;;;;6299948;22;20237;-82
2024/01/05 00:35:14;;;;;;;10.73;6.97;;;2.70;99.90;;;;;;6273298;22;20311;-82
2024/01/05 00:37:40;;;;;;;11.55;6.90;;;2.70;99.90;;;;;;6300027;22;20086;-81
2024/01/05 00:40:06;;;;;;;13.00;7.67;;;2.60;99.90;;;;;;6300201;22;20061;-82
2024/01/05 00:42:31;;;;;;;12.32;7.70;;;2.60;99.90;;;;;;6273466;22;20299;-82
2024/01/05 00:44:57;;;;;;;13.13;7.90;;;2.60;99.90;;;;;;6274098;22;20015;-82
2024/01/05 00:47:23;;;;;;;11.77;7.40;;;2.60;99.90;;;;;;6298480;22;20243;-82
2024/01/05 00:49:48;;;;;;;13.90;8.00;;;2.60;99.90;;;;;;6300269;22;20019;-82
2024/01/05 00:52:14;;;;;;;14.95;8.02;;;2.60;99.90;;;;;;6299682;22;20186;-82
2024/01/05 00:54:40;;;;;;;11.82;6.90;;;2.60;99.90;;;;;;6299729;22;20022;-81
2024/01/05 00:57:06;;;;;;;12.80;8.40;;;2.60;99.90;;;;;;6301064;22;20018;-81
2024/01/05 00:59:31;;;;;;;12.85;7.93;;;2.50;99.90;;;;;;6300533;22;20015;-82
2024/01/05 01:01:57;;;;;;;14.90;8.10;;;2.50;99.90;;;;;;6301003;22;20427;-82
2024/01/05 01:04:23;;;;;;;14.40;8.65;;;2.50;99.90;;;;;;6275071;22;20254;-82
2024/01/05 01:06:49;;;;;;;14.27;8.90;;;2.50;99.90;;;;;;6301559;22;20033;-82
2024/01/05 01:09:15;;;;;;;17.98;8.82;;;2.50;99.90;;;;;;6301455;22;20021;-81
2024/01/05 01:11:41;;;;;;;14.73;8.95;;;2.50;99.90;;;;;;6300867;22;20496;-82
2024/01/05 01:14:07;;;;;;;13.27;8.52;;;2.50;99.90;;;;;;6302076;22;20612;-81
2024/01/05 01:16:32;;;;;;;14.90;8.40;;;2.50;99.90;;;;;;6302934;22;20084;-82
2024/01/05 01:18:59;;;;;;;16.02;8.73;;;2.50;99.90;;;;;;6302096;22;20011;-81
2024/01/05 01:21:24;;;;;;;14.45;9.02;;;2.50;99.90;;;;;;6304343;22;20068;-81
2024/01/05 01:23:51;;;;;;;16.33;8.70;;;2.50;99.90;;;;;;6302055;22;20019;-81
2024/01/05 01:26:17;;;;;;;14.68;8.63;;;2.50;99.90;;;;;;6302500;22;20082;-81
2024/01/05 01:28:42;;;;;;;14.52;9.02;;;2.50;99.90;;;;;;6301803;22;20604;-81
2024/01/05 01:31:08;;;;;;;12.15;7.97;;;2.50;99.90;;;;;;6303316;22;20016;-82
2024/01/05 01:33:34;;;;;;;14.70;9.07;;;2.50;99.90;;;;;;6301230;22;20086;-82
2024/01/05 01:35:59;;;;;;;11.55;7.65;;;2.40;99.90;;;;;;6303729;22;20082;-81
2024/01/05 01:38:25;;;;;;;17.05;9.02;;;2.40;99.90;;;;;;6304266;22;20018;-82
2024/01/05 01:40:53;;;;;;;12.57;8.20;;;2.50;99.90;;;;;;6304000;22;20018;-81
2024/01/05 01:43:26;;;;;;;15.70;8.73;;;2.50;99.90;;;;;;6303212;22;20020;-81
2024/01/05 01:45:53;;;;;;;13.05;7.95;;;2.50;99.90;;;;;;6302143;22;20036;-81
2024/01/05 01:48:19;;;;;;;14.90;8.93;;;2.50;99.90;;;;;;6300793;22;20023;-81
2024/01/05 01:50:45;;;;;;;;;;;2.50;99.90;;;;;;6302190;22;20033;-82
2024/01/05 01:53:14;;;;;;;15.07;8.73;;;2.50;99.90;;;;;;6300760;22;19911;-82
2024/01/05 01:55:41;;;;;;;11.93;7.57;;;2.50;99.90;;;;;;6300063;22;20061;-81
2024/01/05 01:58:08;;;;;;;12.10;7.18;;;2.40;99.90;;;;;;6303302;22;20011;-80
2024/01/05 02:00:34;;;;;;;12.68;8.23;;;2.40;99.90;;;;;;6302190;22;20015;-80
2024/01/05 02:03:03;;;;;;;12.40;7.68;;;2.50;99.90;;;;;;6300068;22;20019;-81
2024/01/05 02:05:29;;;;;;;11.93;7.65;;;2.50;99.90;;;;;;6301492;22;20088;-81
2024/01/05 02:07:56;;;;;;;13.88;7.57;;;2.50;99.90;;;;;;6302369;22;20464;-81
2024/01/05 02:10:22;;;;;;;11.88;7.43;;;2.50;99.90;;;;;;6300235;22;20038;-81
2024/01/05 02:12:47;;;;;;;13.50;7.20;;;2.50;99.90;;;;;;6301751;22;20012;-81
2024/01/05 02:15:13;;;;;;;13.70;7.13;;;2.50;99.90;;;;;;6301978;22;20246;-81
2024/01/05 02:17:39;;;;;;;13.27;7.50;;;2.50;99.90;;;;;;6299780;22;20128;-81
2024/01/05 02:20:05;;;;;;;15.07;7.25;;;2.50;99.90;;;;;;6300445;22;20019;-81
2024/01/05 02:22:33;;;;;;;;;;;2.50;99.90;;;;;;6301181;22;20038;-81
2024/01/05 02:24:59;;;;;;;;;;;2.50;99.90;;;;;;6302955;22;20056;-81
2024/01/05 02:27:25;;;;;;;12.57;7.55;;;2.50;99.90;;;;;;6300040;22;20252;-81
2024/01/05 02:29:51;;;;;;;15.55;8.10;;;2.50;99.90;;;;;;6300639;22;20117;-80
2024/01/05 02:32:17;;;;;;;16.00;8.23;;;2.50;99.90;;;;;;6299542;22;20046;-81
2024/01/05 02:34:43;;;;;;;15.68;8.90;;;2.40;99.90;;;;;;6300351;22;20268;-80
2024/01/05 02:37:09;;;;;;;15.90;7.97;;;2.40;99.90;;;;;;6300214;22;20011;-80
2024/01/05 02:39:35;;;;;;;11.45;6.80;;;2.50;99.90;;;;;;6300477;22;20015;-80
2024/01/05 02:42:00;;;;;;;16.33;8.20;;;2.40;99.90;;;;;;6300033;22;20531;-79
2024/01/05 02:44:26;;;;;;;13.38;7.03;;;2.40;99.90;;;;;;6300539;22;20007;-79
2024/01/05 02:46:52;;;;;;;12.60;7.60;;;2.40;99.90;;;;;;6299918;22;20090;-81
2024/01/05 02:49:17;;;;;;;15.25;8.57;;;2.40;99.90;;;;;;6301636;22;20030;-80
2024/01/05 02:51:43;;;;;;;15.10;8.10;;;2.40;99.90;;;;;;6302507;22;20015;-79
2024/01/05 02:54:09;;;;;;;15.10;8.48;;;2.40;99.90;;;;;;6300442;22;20270;-79
2024/01/05 02:56:35;;;;;;;15.63;8.68;;;2.40;99.90;;;;;;6299759;22;20008;-79
2024/01/05 02:59:03;;;;;;;13.50;8.18;;;2.40;99.90;;;;;;6300618;22;20011;-80
2024/01/05 03:01:28;;;;;;;15.63;8.40;;;2.40;99.90;;;;;;6301222;22;20015;-80
2024/01/05 03:03:54;;;;;;;12.50;7.90;;;2.40;99.90;;;;;;6298797;22;20027;-79
2024/01/05 03:06:20;;;;;;;17.92;9.10;;;2.40;99.90;;;;;;6298513;22;20058;-80
2024/01/05 03:08:46;;;;;;;15.00;8.03;;;2.40;99.90;;;;;;6299234;22;20325;-80
2024/01/05 03:11:12;;;;;;;19.15;8.55;;;2.40;99.90;;;;;;6298070;22;20690;-80
2024/01/05 03:13:38;;;;;;;14.65;8.32;;;2.40;99.90;;;;;;6299931;22;20011;-80
2024/01/05 03:16:04;;;;;;;13.80;8.68;;;2.40;99.90;;;;;;6299264;22;20029;-80
2024/01/05 03:18:30;;;;;;;15.82;8.82;;;2.30;99.90;;;;;;6299905;22;20076;-80
2024/01/05 03:20:56;;;;;;;15.10;8.05;;;2.30;99.90;;;;;;6299501;22;20016;-80
2024/01/05 03:23:22;;;;;;;13.27;8.05;;;2.30;99.90;;;;;;6299810;22;20087;-81
2024/01/05 03:25:48;;;;;;;14.60;8.27;;;2.30;99.90;;;;;;6299283;22;20015;-80
2024/01/05 03:28:14;;;;;;;17.00;8.68;;;2.30;99.90;;;;;;6299840;22;20042;-80
2024/01/05 03:30:41;;;;;;;15.18;8.00;;;2.30;99.90;;;;;;6301090;22;20011;-81
2024/01/05 03:33:08;;;;;;;13.77;8.18;;;2.30;99.90;;;;;;6299713;22;20386;-81
2024/01/05 03:35:33;;;;;;;15.75;8.23;;;2.30;99.90;;;;;;6300859;22;20260;-81
2024/01/05 03:37:59;;;;;;;17.00;9.40;;;2.30;99.90;;;;;;6302207;22;20072;-81
2024/01/05 03:40:25;;;;;;;19.48;8.48;;;2.30;99.90;;;;;;6274488;22;20264;-80
2024/01/05 03:42:50;;;;;;;16.98;9.65;;;2.30;99.90;;;;;;6301689;22;20293;-81
2024/01/05 03:45:16;;;;;;;17.15;8.70;;;2.30;99.90;;;;;;6300804;22;20267;-81
2024/01/05 03:47:42;;;;;;;16.03;8.80;;;2.30;99.90;;;;;;6299777;22;20016;-81
2024/01/05 03:50:08;;;;;;;16.00;9.10;;;2.30;99.90;;;;;;6301060;22;20253;-81
2024/01/05 03:52:36;;;;;;;14.80;8.70;;;2.30;99.90;;;;;;6301686;22;20046;-79
2024/01/05 03:55:01;;;;;;;16.80;8.70;;;2.30;99.90;;;;;;6301277;22;20015;-81
2024/01/05 03:57:28;;;;;;;17.73;10.00;;;2.30;99.90;;;;;;6299147;22;20025;-81
2024/01/05 03:59:53;;;;;;;13.35;8.55;;;2.30;99.90;;;;;;6299407;22;20440;-81
2024/01/05 04:02:19;;;;;;;15.18;9.18;;;2.30;99.90;;;;;;6301309;22;20079;-81
2024/01/05 04:04:45;;;;;;;13.25;8.65;;;2.30;99.90;;;;;;6301692;22;20102;-80
2024/01/05 04:07:10;;;;;;;13.93;8.77;;;2.40;99.90;;;;;;6301307;22;20419;-80
2024/01/05 04:09:36;;;;;;;16.60;9.02;;;2.40;99.90;;;;;;6300375;22;20376;-81
2024/01/05 04:12:02;;;;;;;14.05;8.45;;;2.40;99.90;;;;;;6301862;22;20367;-81
2024/01/05 04:14:28;;;;;;;14.73;8.13;;;2.40;99.90;;;;;;6299275;22;20007;-81
2024/01/05 04:16:53;;;;;;;13.18;8.32;;;2.40;99.90;;;;;;6299354;22;20011;-81
2024/01/05 04:19:19;;;;;;;15.48;8.18;;;2.30;99.90;;;;;;6301593;22;20050;-79
2024/01/05 04:21:45;;;;;;;13.87;8.70;;;2.40;99.90;;;;;;6300866;22;20336;-78
2024/01/05 04:24:11;;;;;;;12.75;8.25;;;2.40;99.90;;;;;;6301567;22;20249;-78
2024/01/05 04:26:37;;;;;;;12.18;7.30;;;2.40;99.90;;;;;;6298781;22;20015;-78
2024/01/05 04:29:03;;;;;;;12.68;8.25;;;2.40;99.90;;;;;;6299620;22;20497;-78
2024/01/05 04:31:29;;;;;;;11.18;7.18;;;2.50;99.90;;;;;;6299464;22;20019;-78
2024/01/05 04:33:55;;;;;;;12.82;7.60;;;2.40;99.90;;;;;;6301306;22;20321;-79
2024/01/05 04:36:21;;;;;;;13.18;7.57;;;2.50;99.90;;;;;;6300712;22;20021;-79
2024/01/05 04:38:47;;;;;;;13.82;7.30;;;2.40;99.90;;;;;;6303035;22;20452;-79
2024/01/05 04:41:14;;;;;;;12.10;6.57;;;2.50;99.90;;;;;;6300293;22;20007;-79
2024/01/05 04:43:40;;;;;;;12.43;7.60;;;2.50;99.90;;;;;;6303216;22;20022;-78
2024/01/05 04:46:07;;;;;;;10.33;6.97;;;2.50;99.90;;;;;;6301521;22;20015;-78
2024/01/05 04:48:33;;;;;;;10.70;6.57;;;2.50;99.90;;;;;;6301274;22;20284;-78
2024/01/05 04:51:00;;;;;;;11.88;6.88;;;2.40;99.90;;;;;;6301640;22;20485;-78
2024/01/05 04:53:25;;;;;;;11.15;7.53;;;2.50;99.90;;;;;;6275531;22;20020;-79
2024/01/05 04:55:51;;;;;;;11.35;6.97;;;2.40;99.90;;;;;;6274600;22;20037;-79
2024/01/05 04:58:17;;;;;;;12.23;6.95;;;2.40;99.90;;;;;;6301394;22;20109;-79
2024/01/05 05:00:43;;;;;;;11.10;6.40;;;2.50;99.90;;;;;;6300479;22;20039;-79
2024/01/05 05:03:09;;;;;;;12.60;6.88;;;2.40;99.90;;;;;;6300360;22;20019;-79
2024/01/05 05:05:36;;;;;;;10.15;6.80;;;2.40;99.90;;;;;;6298625;22;20015;-79
2024/01/05 05:08:02;;;;;;;10.57;6.60;;;2.50;99.90;;;;;;6300462;22;20018;-79
2024/01/05 05:10:27;;;;;;;9.32;5.97;;;2.50;99.90;;;;;;6300093;22;20043;-79
2024/01/05 05:12:53;;;;;;;8.68;5.80;;;2.50;99.90;;;;;;6300572;22;20392;-79
2024/01/05 05:15:19;;;;;;;11.23;6.82;;;2.40;99.90;;;;;;6275346;22;20015;-79
2024/01/05 05:17:45;;;;;;;10.55;6.30;;;2.50;99.90;;;;;;6301185;22;20020;-79
2024/01/05 05:20:11;;;;;;;10.98;6.15;;;2.50;99.90;;;;;;6301247;22;20520;-79
2024/01/05 05:22:37;;;;;;;9.15;6.20;;;2.60;99.90;;;;;;6301097;22;20018;-79
2024/01/05 05:25:03;;;;;;;11.83;6.37;;;2.50;99.90;;;;;;6300831;22;20103;-79
2024/01/05 05:27:28;;;;;;;9.63;6.55;;;2.50;99.90;;;;;;6300613;22;20242;-79
2024/01/05 05:29:54;;;;;;;10.57;6.60;;;2.60;99.90;;;;;;6301015;22;20026;-79
2024/01/05 05:32:19;;;;;;;9.25;6.18;;;2.60;99.90;;;;;;6274940;22;20229;-79
2024/01/05 05:34:45;;;;;;;10.13;6.57;;;2.50;99.90;;;;;;6300939;22;20023;-79
2024/01/05 05:37:11;;;;;;;9.20;6.37;;;2.70;99.90;;;;;;6301082;22;20280;-79
2024/01/05 05:39:36;;;;;;;9.75;6.53;;;2.60;99.90;;;;;;6298584;22;20026;-79
2024/01/05 05:42:02;;;;;;;7.93;5.65;;;2.60;99.90;;;;;;6300362;22;20038;-79
2024/01/05 05:44:28;;;;;;;11.35;6.70;;;2.60;99.90;;;;;;6302485;22;20014;-79
2024/01/05 05:46:54;;;;;;;9.57;6.07;;;2.60;99.90;;;;;;6300252;22;20073;-80
2024/01/05 05:49:20;;;;;;;9.20;6.13;;;2.70;99.90;;;;;;6300181;22;20576;-79
2024/01/05 05:51:46;;;;;;;9.20;5.88;;;2.70;99.90;;;;;;6300494;22;20019;-79
2024/01/05 05:54:12;;;;;;;8.70;6.40;;;2.60;99.90;;;;;;6300210;22;20016;-79
2024/01/05 05:56:39;;;;;;;12.52;6.93;;;2.60;99.90;;;;;;6302299;22;20011;-79
2024/01/05 05:59:05;;;;;;;10.90;6.78;;;2.70;99.90;;;;;;6300602;22;20011;-78
2024/01/05 06:01:30;;;;;;;12.45;7.25;;;2.70;99.90;;;;;;6300451;22;20097;-78
2024/01/05 06:03:56;;;;;;;9.10;6.50;;;2.70;99.90;;;;;;6302274;22;20015;-80
2024/01/05 06:06:23;;;;;;;10.60;6.50;;;2.60;99.90;;;;;;6300512;22;20121;-79
2024/01/05 06:08:51;;;;;;;12.15;6.90;;;2.60;99.90;;;;;;6300021;22;20092;-78
2024/01/05 06:11:17;;;;;;;9.43;6.47;;;2.70;99.90;;;;;;6273646;22;20098;-80
2024/01/05 06:13:43;;;;;;;;;;;2.80;99.90;;;;;;6300933;22;20464;-79
2024/01/05 06:16:09;;;;;;;11.38;7.13;;;2.70;99.90;;;;;;6301731;22;19930;-80
2024/01/05 06:18:35;;;;;;;12.32;7.60;;;2.80;99.90;;;;;;6300657;22;20026;-80
2024/01/05 06:21:00;;;;;;;11.73;6.95;;;2.70;99.90;;;;;;6300259;22;20019;-80
2024/01/05 06:23:26;;;;;;;10.82;7.22;;;2.80;99.90;;;;;;6299800;22;20042;-80
2024/01/05 06:25:52;;;;;;;10.82;6.90;;;2.70;99.90;;;;;;6301095;22;20455;-80
2024/01/05 06:28:17;;;;;;;10.57;7.18;;;2.80;99.90;;;;;;6301446;22;20015;-80
2024/01/05 06:30:43;;;;;;;10.48;7.45;;;2.70;99.90;;;;;;6302124;22;20015;-80
2024/01/05 06:33:09;;;;;;;11.30;7.45;;;2.80;99.90;;;;;;6300125;22;20019;-80
2024/01/05 06:35:34;;;;;;;12.60;7.63;;;2.80;99.90;;;;;;6299998;22;20051;-80
2024/01/05 06:38:00;;;;;;;11.98;7.57;;;2.70;99.90;;;;;;6299481;22;20049;-80
2024/01/05 06:40:25;;;;;;;9.57;6.90;;;2.80;99.90;;;;;;6299578;22;20331;-80
2024/01/05 06:42:51;;;;;;;12.57;7.43;;;2.80;99.90;;;;;;6300435;22;20019;-80
2024/01/05 06:45:17;;;;;;;11.90;6.93;;;2.80;99.90;;;;;;6302274;22;20478;-80
2024/01/05 06:47:43;;;;;;;11.60;7.22;;;2.80;99.90;;;;;;6303028;22;20019;-81
2024/01/05 06:50:08;;;;;;;13.50;7.83;;;2.80;99.90;;;;;;6302344;22;20015;-80
2024/01/05 06:52:34;;;;;;;10.65;7.53;;;2.80;99.90;;;;;;6301665;22;20269;-79
2024/01/05 06:55:00;;;;;;;11.00;7.85;;;2.90;99.90;;;;;;6300779;22;20439;-79
2024/01/05 06:57:28;;;;;;;11.88;8.25;;;2.90;99.90;;;;;;6298702;22;20082;-79
2024/01/05 06:59:53;;;;;;;11.38;7.70;;;2.80;99.90;;;;;;6299635;22;20405;-79
2024/01/05 07:02:19;;;;;;;13.82;7.57;;;2.90;99.90;;;;;;6299683;22;20026;-79
2024/01/05 07:04:45;;;;;;;13.57;7.72;;;2.90;99.90;;;;;;6273571;22;20026;-80
2024/01/05 07:07:11;;;;;;;10.98;7.35;;;2.90;99.90;;;;;;6297984;22;20145;-79
2024/01/05 07:09:36;;;;;;;11.75;8.35;;;2.80;99.90;;;;;;6300059;22;20015;-80
2024/01/05 07:12:02;;;;;;;11.05;7.45;;;2.90;99.90;;;;;;6301409;22;20008;-79
2024/01/05 07:14:29;;;;;;;12.20;7.40;;;3.00;99.90;;;;;;6302308;22;20030;-79
2024/01/05 07:16:56;;;;;;;10.63;7.80;;;3.00;99.90;;;;;;6274231;22;20064;-79
2024/01/05 07:19:22;;;;;;;9.63;6.78;;;2.90;99.90;;;;;;6302260;22;20085;-79
2024/01/05 07:21:48;;;;;;;9.68;7.20;;;2.90;99.90;;;;;;6299917;22;20011;-79
2024/01/05 07:24:15;;;;;;;9.25;6.90;;;2.90;99.90;;;;;;6300691;22;20021;-81
2024/01/05 07:26:41;;;;;;;10.88;6.97;;;3.00;99.90;;;;;;6299816;22;20015;-79
2024/01/05 07:29:07;;;;;;;10.02;7.35;;;3.00;99.90;;;;;;6298730;22;20019;-80
2024/01/05 07:31:32;;;;;;;10.48;7.07;;;2.90;99.90;;;;;;6294792;22;20104;-80
2024/01/05 07:33:58;;;;;;;9.70;7.20;;;2.90;99.90;;;;;;6296315;22;20332;-80
2024/01/05 07:36:24;;;;;;;10.35;7.45;;;2.90;99.90;;;;;;6299520;22;20555;-80
2024/01/05 07:38:49;;;;;;;10.97;7.23;;;3.00;99.90;;;;;;6299680;22;20057;-80
2024/01/05 07:41:18;;;;;;;14.90;8.90;;;3.10;99.90;;;;;;6297299;22;20238;-81
2024/01/05 07:43:44;;;;;;;12.18;8.80;;;3.00;99.90;;;;;;6297490;22;20028;-81
2024/01/05 07:46:10;;;;;;;11.45;7.80;;;3.00;99.90;;;;;;6296785;22;20624;-81
2024/01/05 07:48:42;;;;;;;12.18;8.32;;;3.10;99.90;;;;;;6297339;22;20019;-80
2024/01/05 07:51:08;;;;;;;11.05;7.63;;;3.00;99.90;;;;;;6300288;22;20023;-81
2024/01/05 07:53:34;;;;;;;13.77;8.80;;;3.10;99.90;;;;;;6298407;22;20020;-81
2024/01/05 07:56:01;;;;;;;13.07;9.20;;;3.10;99.90;;;;;;6299705;22;20022;-80
2024/01/05 07:58:26;;;;;;;11.27;8.20;;;3.20;99.90;;;;;;6300164;22;20313;-79
2024/01/05 08:00:52;;;;;;;12.00;8.23;;;3.20;99.90;;;;;;6297948;22;20038;-79
2024/01/05 08:03:18;;;;;;;12.23;8.73;;;3.10;99.90;;;;;;6298017;22;20015;-80
2024/01/05 08:05:43;;;;;;;13.18;8.63;;;3.20;99.90;;;;;;6297409;22;20016;-79
2024/01/05 08:08:09;;;;;;;12.13;8.57;;;3.20;99.90;;;;;;6297663;22;20135;-79
2024/01/05 08:10:35;;;;;;;14.32;8.90;;;3.20;99.90;;;;;;6300228;22;20026;-80
2024/01/05 08:13:01;;;;;;;13.30;9.27;;;3.20;99.90;;;;;;6301687;22;20045;-79
2024/01/05 08:15:27;;;;;;;13.35;9.02;;;3.20;99.90;;;;;;6299262;22;20913;-79
2024/01/05 08:17:54;;;;;;;14.70;9.27;;;3.20;99.90;;;;;;6301875;22;20475;-79
2024/01/05 08:20:20;;;;;;;13.63;9.55;;;3.30;99.90;;;;;;6300345;22;20015;-79
2024/01/05 08:22:45;;;;;;;13.55;9.75;;;3.30;99.90;;;;;;6299831;22;20025;-80
2024/01/05 08:25:14;;;;;;;16.63;10.18;;;3.30;99.90;;;;;;6274702;22;20023;-80
2024/01/05 08:27:40;;;;;;;15.10;10.05;;;3.20;99.90;;;;;;6301664;22;20094;-80
2024/01/05 08:30:07;;;;;;;14.18;10.30;;;3.30;99.90;;;;;;6274139;22;20046;-79
2024/01/05 08:32:33;;;;;;;17.10;10.57;;;3.20;99.90;;;;;;6299659;22;20011;-81
2024/01/05 08:34:59;;;;;;;16.83;11.20;;;3.30;99.90;;;;;;6299881;22;20147;-81
2024/01/05 08:37:25;;;;;;;18.90;11.48;;;3.30;99.90;;;;;;6301124;22;20500;-81
2024/01/05 08:39:51;;;;;;;18.33;11.52;;;3.40;99.90;;;;;;6299544;22;20480;-81
2024/01/05 08:42:16;;;;;;;21.77;11.88;;;3.30;99.90;;;;;;6302943;22;20061;-81
2024/01/05 08:44:43;;;;;;;17.85;11.40;;;3.40;99.90;;;;;;6303400;22;20019;-79
2024/01/05 08:47:09;;;;;;;;;;;3.40;99.90;;;;;;6304426;22;20421;-80
2024/01/05 08:49:34;;;;;;;17.70;10.80;;;3.40;99.90;;;;;;6301136;22;20100;-79
2024/01/05 08:52:00;;;;;;;17.00;11.50;;;3.50;99.90;;;;;;6302148;22;20011;-79
2024/01/05 08:54:26;;;;;;;16.67;11.00;;;3.40;99.90;;;;;;6301472;22;20340;-79
2024/01/05 08:56:52;;;;;;;;;;;3.50;99.90;;;;;;6276831;22;20015;-79
2024/01/05 08:59:18;;;;;;;16.38;10.80;;;3.40;99.90;;;;;;6301265;22;19977;-79
2024/01/05 09:01:44;;;;;;;16.20;11.55;;;3.50;99.90;;;;;;6275782;22;20011;-79
2024/01/05 09:04:13;;;;;;;15.65;10.82;;;3.40;99.90;;;;;;6301997;22;20062;-79
2024/01/05 09:06:39;;;;;;;17.42;11.30;;;3.40;99.90;;;;;;6302522;22;20094;-80
2024/01/05 09:09:04;;;;;;;15.48;10.18;;;3.50;99.90;;;;;;6298466;22;20026;-79
2024/01/05 09:11:30;;;;;;;14.15;10.18;;;3.50;99.90;;;;;;6301681;22;20023;-78
2024/01/05 09:13:56;;;;;;;13.73;9.90;;;3.60;99.90;;;;;;6301544;22;20474;-79
2024/01/05 09:16:22;;;;;;;14.07;9.73;;;3.60;99.90;;;;;;6301222;22;20299;-80
2024/01/05 09:18:49;;;;;;;15.15;9.68;;;3.50;99.90;;;;;;6300894;22;20096;-79
2024/01/05 09:21:14;;;;;;;;;;;3.50;99.90;;;;;;6302022;22;20015;-78
2024/01/05 09:23:41;;;;;;;14.60;9.70;;;3.50;99.90;;;;;;6298782;22;19958;-79
2024/01/05 09:26:15;;;;;;;13.18;9.02;;;3.70;99.90;;;;;;6299954;22;20084;-77
2024/01/05 09:28:42;;;;;;;13.75;9.00;;;3.70;99.90;;;;;;6302263;22;20023;-77
2024/01/05 09:31:08;;;;;;;11.90;8.50;;;3.60;99.90;;;;;;6299676;22;20436;-77
2024/01/05 09:33:34;;;;;;;12.82;9.65;;;3.70;99.90;;;;;;6300088;22;20454;-77
2024/01/05 09:35:59;;;;;;;12.02;8.63;;;3.70;99.90;;;;;;6302066;22;20047;-77
2024/01/05 09:38:25;;;;;;;14.25;9.82;;;3.70;99.90;;;;;;6300433;22;20066;-77
2024/01/05 09:40:52;;;;;;;11.73;8.65;;;3.90;99.90;;;;;;6301676;22;20015;-78
2024/01/05 09:43:27;;;;;;;12.68;9.43;;;3.60;99.90;;;;;;6302507;22;20019;-78
2024/01/05 09:45:55;;;;;;;14.00;9.60;;;3.80;99.90;;;;;;6301247;22;20121;-77
2024/01/05 09:48:22;;;;;;;11.95;8.82;;;3.90;99.90;;;;;;6299667;22;20042;-77
2024/01/05 09:50:52;;;;;;;11.95;8.68;;;3.90;99.90;;;;;;6300353;22;20077;-77
2024/01/05 09:53:19;;;;;;;10.65;8.18;;;3.90;99.90;;;;;;6300019;22;20015;-77
2024/01/05 09:55:49;;;;;;;12.05;8.77;;;3.90;99.90;;;;;;6299664;22;20022;-78
2024/01/05 09:58:16;;;;;;;10.52;7.90;;;4.00;99.90;;;;;;6300121;22;20011;-78
2024/01/05 10:00:48;;;;;;;12.00;8.73;;;4.00;99.90;;;;;;6300204;22;20527;-78
2024/01/05 10:03:20;;;;;;;11.20;7.90;;;3.70;99.90;;;;;;6299810;22;20064;-77
2024/01/05 10:05:46;;;;;;;11.38;8.38;;;4.00;99.90;;;;;;6298931;22;20022;-77
2024/01/05 10:08:13;;;;;;;11.80;8.30;;;3.90;99.90;;;;;;6273201;22;20267;-78
2024/01/05 10:10:52;;;;;;;10.52;7.68;;;4.10;99.90;;;;;;6299070;22;20039;-78
2024/01/05 10:13:18;;;;;;;11.50;8.82;;;4.20;99.90;;;;;;6274219;22;20484;-79
2024/01/05 10:15:59;;;;;;;10.65;7.43;;;4.10;99.90;;;;;;6298900;22;20043;-78
2024/01/05 10:18:28;;;;;;;11.52;8.05;;;4.10;99.90;;;;;;6299962;22;20021;-78
2024/01/05 10:20:55;;;;;;;11.25;8.25;;;3.90;99.90;;;;;;6299624;22;20394;-78
2024/01/05 10:23:21;;;;;;;12.07;8.48;;;4.10;99.90;;;;;;6299691;22;20325;-79
2024/01/05 10:25:47;;;;;;;11.75;8.60;;;4.20;99.90;;;;;;6299394;22;20051;-78
2024/01/05 10:28:23;;;;;;;12.48;9.07;;;4.30;99.90;;;;;;6301520;22;20374;-79
2024/01/05 10:30:49;;;;;;;14.60;10.27;;;4.00;99.90;;;;;;6300604;22;20007;-79
2024/01/05 10:33:16;;;;;;;13.38;8.90;;;4.30;99.90;;;;;;6299091;22;20014;-78
2024/01/05 10:35:42;;;;;;;13.15;9.43;;;4.30;99.90;;;;;;6299523;22;20058;-78
2024/01/05 10:38:13;;;;;;;13.38;10.00;;;4.30;99.90;;;;;;6300234;22;20280;-78
2024/01/05 10:40:40;;;;;;;10.95;8.48;;;4.20;99.90;;;;;;6273443;22;20087;-78
2024/01/05 10:43:13;;;;;;;;;;;4.40;99.90;;;;;;6299877;22;20011;-78
2024/01/05 10:45:41;;;;;;;17.67;9.50;;;4.20;99.90;;;;;;6300703;22;19918;-78
2024/01/05 10:48:13;;;;;;;11.57;8.32;;;4.50;99.90;;;;;;6299428;22;20447;-77
2024/01/05 10:50:43;;;;;;;11.10;8.77;;;4.10;99.90;;;;;;6301417;22;20432;-79
2024/01/05 10:53:09;;;;;;;12.05;9.13;;;4.20;99.90;;;;;;6301847;22;20034;-79
2024/01/05 10:55:38;;;;;;;13.55;9.30;;;4.50;99.90;;;;;;6301142;22;20068;-79
2024/01/05 10:58:07;;;;;;;14.05;9.15;;;4.50;99.90;;;;;;6299386;22;20050;-78
2024/01/05 11:00:34;;;;;;;11.90;8.57;;;4.30;99.90;;;;;;6301789;22;20026;-78
2024/01/05 11:03:12;;;;;;;13.32;8.88;;;4.30;99.90;;;;;;6299870;22;20061;-79
2024/01/05 11:05:41;;;;;;;12.45;8.52;;;4.70;99.90;;;;;;6300074;22;20466;-78
2024/01/05 11:08:15;;;;;;;13.30;8.73;;;4.40;99.90;;;;;;6299224;22;20004;-78
2024/01/05 11:11:20;;;;;;;12.70;9.65;;;4.50;99.90;;;;;;6299300;22;20015;-79
2024/01/05 11:13:54;;;;;;;12.00;8.43;;;4.50;99.90;;;;;;6299384;22;20015;-79
2024/01/05 11:16:28;;;;;;;11.15;8.15;;;4.60;99.90;;;;;;6300402;22;20015;-79
2024/01/05 11:19:24;;;;;;;11.50;8.88;;;4.70;99.90;;;;;;6301524;22;20432;-77
2024/01/05 11:22:06;;;;;;;10.98;8.27;;;4.60;99.90;;;;;;6299603;22;20022;-78
2024/01/05 11:24:33;;;;;;;12.30;8.23;;;4.90;99.90;;;;;;6301896;22;20090;-79
2024/01/05 11:26:59;;;;;;;11.07;8.25;;;4.60;99.90;;;;;;6300889;22;20011;-79
2024/01/05 11:29:48;;;;;;;11.70;8.55;;;4.60;99.90;;;;;;6302209;22;20011;-79
2024/01/05 11:32:33;;;;;;;11.90;8.18;;;4.90;99.90;;;;;;6302037;22;20088;-78
2024/01/05 11:35:00;;;;;;;12.63;9.00;;;4.90;99.90;;;;;;6302024;22;20134;-79
2024/01/05 11:37:30;;;;;;;12.70;8.25;;;4.80;99.90;;;;;;6301299;22;20088;-79
2024/01/05 11:40:00;;;;;;;11.75;8.45;;;4.50;99.90;;;;;;6299326;22;20015;-79
2024/01/05 11:42:30;;;;;;;12.23;8.45;;;4.60;99.90;;;;;;6298715;22;20022;-79
2024/01/05 11:44:56;;;;;;;12.25;8.73;;;4.60;99.90;;;;;;6299342;22;20023;-79
2024/01/05 11:47:40;;;;;;;11.88;9.02;;;4.80;99.90;;;;;;6300405;22;20082;-78
2024/01/05 11:50:27;;;;;;;13.40;8.93;;;4.50;99.90;;;;;;6299681;22;20105;-78
2024/01/05 11:53:16;;;;;;;12.52;9.18;;;4.80;99.90;;;;;;6301216;22;20030;-79
2024/01/05 11:55:53;;;;;;;14.02;9.38;;;4.70;99.90;;;;;;6298933;22;20023;-78
2024/01/05 11:58:21;;;;;;;12.98;9.13;;;4.80;99.90;;;;;;6300509;22;20440;-78
2024/01/05 12:00:49;;;;;;;12.43;9.57;;;4.80;99.90;;;;;;6299871;22;20043;-78
2024/01/05 12:03:16;;;;;;;12.80;9.35;;;4.90;99.90;;;;;;6299723;22;20019;-78
2024/01/05 12:05:43;;;;;;;11.98;8.85;;;4.70;99.90;;;;;;6299228;22;20061;-80
2024/01/05 12:08:13;;;;;;;13.63;9.18;;;4.60;99.90;;;;;;6298265;22;20019;-78
2024/01/05 12:10:40;;;;;;;14.40;10.55;;;4.90;99.90;;;;;;6297863;22;20023;-77
2024/01/05 12:13:06;;;;;;;11.82;8.88;;;4.80;99.90;;;;;;6300865;22;20040;-78
2024/01/05 12:15:32;;;;;;;;;;;5.00;99.90;;;;;;6299590;22;20477;-77
2024/01/05 12:18:03;;;;;;;13.95;10.20;;;4.90;99.90;;;;;;6299462;22;19915;-78
2024/01/05 12:20:30;;;;;;;13.75;9.77;;;5.00;99.90;;;;;;6298860;22;20513;-78
2024/01/05 12:22:55;;;;;;;;;;;5.00;99.90;;;;;;6297286;22;20444;-78
2024/01/05 12:25:21;;;;;;;11.32;8.50;;;5.10;99.90;;;;;;6298587;22;19925;-77
2024/01/05 12:27:46;;;;;;;12.43;8.90;;;5.10;99.90;;;;;;6297903;22;20015;-77
2024/01/05 12:30:13;;;;;;;15.20;9.82;;;5.10;99.90;;;;;;6298191;22;20249;-78
2024/01/05 12:32:39;;;;;;;14.98;9.55;;;4.80;99.90;;;;;;6300436;22;20015;-78
2024/01/05 12:35:06;;;;;;;12.15;8.70;;;5.00;99.90;;;;;;6298408;22;20126;-78
2024/01/05 12:37:34;;;;;;;13.27;9.65;;;5.00;99.90;;;;;;6301182;22;20015;-77
2024/01/05 12:40:10;;;;;;;14.60;10.20;;;5.10;99.90;;;;;;6296135;22;20452;-78
2024/01/05 12:42:39;;;;;;;11.98;9.32;;;5.00;99.90;;;;;;6297230;22;20016;-77
2024/01/05 12:45:06;;;;;;;11.73;8.27;;;5.10;99.90;;;;;;6301094;22;20015;-78
2024/01/05 12:47:35;;;;;;;12.35;9.05;;;5.10;99.90;;;;;;6301315;22;20019;-76
2024/01/05 12:50:03;;;;;;;10.75;8.23;;;4.90;99.90;;;;;;6272697;22;20027;-77